Terminal Aerodrome Forecast
Issued by NWS

Home | Current Version | Previous Version | Text Only | Print | Product List | Glossary On
Versions: 1 2 3 4 5 6 7 8 9 10 11 12 13 14 15 16 17 18 19 20 21 22 23 24 25 26 27
000
FTUS42 KGSP 081239 AAB
TAFGMU
TAF AMD
KGMU 081239Z 0813/0912 29004KT P6SM SCT008 OVC150
     FM081400 34007KT P6SM SCT040 BKN150
     FM082000 33010G16KT P6SM SCT150
     FM090400 34006KT P6SM SCT150=

USA.gov is the U.S. government's official web portal to all federal, state and local government web resources and services.